Terminal Aerodrome Forecast
Issued by NWS

Home | Current Version | Previous Version | Graphics & Text | Print | Product List | Glossary On
Versions: 1 2 3 4 5 6 7 8 9 10 11 12 13 14 15 16 17 18 19
000
FTUS43 KGRB 281727
TAFCWA
TAF
KCWA 281727Z 2818/2918 21007KT P6SM VCSH SCT015 OVC080
     FM282100 21010KT P6SM -SHRA SCT015 OVC060
      TEMPO 2821/2901 5SM -SHRA BR BKN015
     FM290100 17005KT 5SM -SHRA BR BKN009 OVC050
     FM290600 13003KT 5SM BR SCT004 OVC008
      TEMPO 2909/2913 2SM BR BKN004
     FM291500 06004KT 5SM BR OVC008=

USA.gov is the U.S. government's official web portal to all federal, state and local government web resources and services.